• Join FlightAware (Why Join?)
  • Login
  • US Flag 
10:12AM EST


 

Airport Tracker/Info


-or-


 

Live Flight TrackerFlight Track Log ✈ ASQ318T ✈ 24-Mar-2013 ✈ KIAH - KRDU

Flight Track Log - Related Links

Times and Time Zones

All times are in EDT time to prevent confusion due to time zone crossing. See the ASQ318T flight status page for this flight to view local times or setup timezone preferences in your user account.

Time Position Orientation Groundspeed Altitude Reporting Facility
EDT Latitude Longitude Course Direction KTS MPH feet Rate Location/Type
02:56PM 29.9889 -95.3644 224° Southwest 158 182 800  Level Houston Center
02:57PM 29.9525 -95.4050 224° Southwest 263 303 3,500 1,920 Climbing Houston Center
02:58PM 29.9242 -95.3644 129° Southeast 259 298 4,600 1,440 Climbing Houston Center
02:58PM 29.9122 -95.3303 112° Southeast 287 330 5,000 720 Climbing Houston Center
02:59PM 29.8936 -95.2756 111° Southeast 290 334 5,400 1,320 Climbing Houston Center
02:59PM 29.8919 -95.2483 94° East 296 341 6,300 2,280 Climbing Houston Center
03:00PM 29.8908 -95.1758 91° East 312 359 7,800 1,980 Climbing Houston Center
03:00PM 29.8889 -95.1450 94° East 333 383 8,300 2,280 Climbing Houston Center
03:01PM 29.8881 -95.0658 91° East 337 388 10,200 1,560 Climbing Houston Center
03:02PM 29.8839 -94.9456 92° East 371 427 11,200 1,200 Climbing Houston Center
03:03PM 29.8794 -94.8111 92° East 415 478 12,700 1,440 Climbing Houston Center
03:04PM 29.8750 -94.6708 92° East 431 496 14,200 1,560 Climbing Houston Center
03:05PM 29.8700 -94.5294 92° East 440 506 16,000 1,560 Climbing Houston Center
03:06PM 29.8644 -94.3569 92° East 446 513 17,500 1,200 Climbing Houston Center
03:07PM 29.8594 -94.2086 92° East 457 526 18,600 1,020 Climbing Houston Center
03:08PM 29.8547 -94.0492 92° East 470 541 19,700 960 Climbing Houston Center
03:09PM 29.8703 -93.8928 83° East 492 566 20,700 960 Climbing Houston Center
03:10PM 29.8864 -93.7367 83° East 495 570 21,700 1,020 Climbing Houston Center
03:11PM 29.9031 -93.5794 83° East 499 574 22,900 1,260 Climbing Houston Center
03:12PM 29.9217 -93.3900 83° East 501 577 24,400 1,260 Climbing Houston Center
03:13PM 29.9375 -93.2319 83° East 503 579 25,600 1,140 Climbing Houston Center
03:14PM 29.9536 -93.0756 83° East 498 573 26,800 1,140 Climbing Houston Center
03:15PM 29.9694 -92.9194 83° East 496 571 28,000 1,140 Climbing Houston Center
03:16PM 29.9819 -92.7633 85° East 493 567 29,200 1,200 Climbing Houston Center
03:17PM 30.0217 -92.5831 76° East 493 567 30,600 1,140 Climbing Houston Center
03:18PM 30.0892 -92.4461 60° Northeast 495 570 31,600 960 Climbing Houston Center
03:19PM 30.1581 -92.3081 60° Northeast 497 572 32,600 960 Climbing Houston Center
03:20PM 30.2322 -92.1567 60° Northeast 502 578 33,700 960 Climbing Houston Center
03:21PM 30.2997 -92.0161 61° Northeast 503 579 34,700 600 Climbing Houston Center
03:22PM 30.3683 -91.8758 60° Northeast 504 580 35,000 120 Climbing Houston Center
03:23PM 30.4514 -91.7019 61° Northeast 531 611 35,000  Level Houston Center
03:24PM 30.5314 -91.5381 60° Northeast 563 648 35,000  Level Houston Center
03:26PM 30.6183 -91.4137 60° Northeast  Level FlightAware Approximate
03:27PM 30.6861 -91.2150 60° Northeast 585 673 35,000  Level Houston Center
03:28PM 30.7658 -91.0475 61° Northeast 590 679 35,000  Level Houston Center
03:29PM 30.8439 -90.8811 61° Northeast 588 677 35,000  Level Houston Center
03:30PM 30.9367 -90.6831 61° Northeast 582 670 35,000  Level Houston Center
03:31PM 31.0139 -90.5172 61° Northeast 580 667 35,000  Level Houston Center
03:32PM 31.0911 -90.3511 61° Northeast 581 669 35,000  Level Houston Center
03:33PM 31.1694 -90.1822 62° Northeast 587 676 35,000  Level Houston Center
03:34PM 31.2469 -90.0133 62° Northeast 587 676 35,000 -60 Level Houston Center
03:35PM 31.3261 -89.8436 61° Northeast 590 679 34,900  Descending Houston Center
03:36PM 31.4033 -89.6753 62° Northeast 586 674 35,000  Climbing Houston Center
03:37PM 31.4833 -89.4989 62° Northeast 584 672 35,000  Level Houston Center
03:38PM 31.5736 -89.2983 62° Northeast 577 664 35,000  Level Houston Center
03:39PM 31.6500 -89.1283 62° Northeast 584 672 35,000  Level Houston Center
03:40PM 31.7267 -88.9581 62° Northeast 587 676 35,000  Level Houston Center
03:41PM 31.8014 -88.7878 63° Northeast 587 676 35,000  Level Houston Center
03:42PM 31.8808 -88.6219 61° Northeast 572 658 35,000  Level Atlanta Center
03:43PM 31.9558 -88.4497 63° Northeast 572 658 35,000  Level Atlanta Center
03:44PM 32.0283 -88.2842 63° Northeast 572 658 35,000  Level Atlanta Center
03:45PM 32.1050 -88.1161 62° Northeast 567 652 35,000  Level Atlanta Center
03:46PM 32.1753 -87.9478 64° Northeast 567 652 35,000  Level Atlanta Center
03:47PM 32.2514 -87.7792 62° Northeast 567 652 35,000  Level Atlanta Center
03:48PM 32.3253 -87.6103 63° Northeast 567 652 35,000  Level Atlanta Center
03:49PM 32.3967 -87.4433 63° Northeast 567 652 35,000  Level Atlanta Center
03:50PM 32.4683 -87.2664 64° Northeast 573 659 35,000  Level Atlanta Center
03:51PM 32.5394 -87.0989 63° Northeast 578 665 35,000  Level Atlanta Center
03:52PM 32.6144 -86.9289 62° Northeast 573 659 35,000  Level Atlanta Center
03:53PM 32.6831 -86.7586 64° Northeast 573 659 35,000  Level Atlanta Center
03:54PM 32.7556 -86.5878 63° Northeast 568 654 35,000  Level Atlanta Center
03:55PM 32.8236 -86.4242 64° Northeast 562 647 35,000  Level Atlanta Center
03:56PM 32.8956 -86.2531 63° Northeast 562 647 35,000  Level Atlanta Center
03:57PM 32.9653 -86.0839 64° Northeast 560 644 35,000  Level Atlanta Center
03:58PM 33.0347 -85.9144 64° Northeast 568 654 35,000  Level Atlanta Center
03:59PM 33.1042 -85.7450 64° Northeast 561 646 35,000  Level Atlanta Center
04:00PM 33.1711 -85.5750 65° Northeast 561 646 35,000  Level Atlanta Center
04:01PM 33.2272 -85.4022 69° East 561 646 35,000  Level Atlanta Center
04:02PM 33.2586 -85.2139 79° East 567 652 35,000  Level Atlanta Center
04:03PM 33.2872 -85.0253 80° East 574 661 35,000  Level Atlanta Center
04:04PM 33.3178 -84.8367 79° East 580 667 35,000  Level Atlanta Center
04:05PM 33.3461 -84.6456 80° East 580 667 35,000  Level Atlanta Center
04:06PM 33.3739 -84.4792 79° East 580 667 35,000  Level Atlanta Center
04:07PM 33.4017 -84.2878 80° East 580 667 35,000  Level Atlanta Center
04:08PM 33.4311 -84.0986 79° East 580 667 35,000  Level Atlanta Center
04:09PM 33.4581 -83.9119 80° East 580 667 35,000  Level Atlanta Center
04:10PM 33.4869 -83.7200 80° East 580 667 35,000  Level Atlanta Center
04:11PM 33.5136 -83.5331 80° East 575 662 35,000  Level Atlanta Center
04:12PM 33.5439 -83.3408 79° East 581 669 35,000  Level Atlanta Center
04:13PM 33.5719 -83.1511 80° East 575 662 35,000 -300 Level Atlanta Center
04:14PM 33.5975 -82.9614 81° East 581 669 34,500 -960 Descending Atlanta Center
04:15PM 33.6228 -82.7714 81° East 576 663 33,100 -780 Descending Atlanta Center
04:16PM 33.6519 -82.5789 80° East 582 670 33,000 -60 Descending Atlanta Center
04:17PM 33.6786 -82.3739 81° East 577 664 33,000  Level Atlanta Center
04:19PM 33.7350 -81.9936 80° East 594 684 33,000  Level Jacksonville Center
04:20PM 33.7650 -81.8033 79° East 588 677 33,000 -300 Level Jacksonville Center
04:21PM 33.8406 -81.6447 60° Northeast 557 641 32,500 -960 Descending Jacksonville Center
04:22PM 33.9331 -81.4933 54° Northeast 546 628 31,100 -780 Descending Jacksonville Center
04:23PM 34.0250 -81.3364 55° Northeast 559 643 31,000 -60 Descending Jacksonville Center
04:24PM 34.1192 -81.1844 53° Northeast 559 643 31,000  Level Jacksonville Center
04:25PM 34.2108 -81.0319 54° Northeast 564 649 31,000  Level Jacksonville Center
04:26PM 34.2900 -80.8994 54° Northeast 554 638 31,000 -900 Level Jacksonville Center
04:27PM 34.4036 -80.7006 55° Northeast 560 644 29,300 -1,980 Descending Jacksonville Center
04:28PM 34.4867 -80.5650 53° Northeast 568 654 27,100 -1,740 Descending Jacksonville Center
04:30PM 34.6869 -80.2267 54° Northeast 515 593 23,500 -1,260 Descending Washington Center
04:31PM 34.7717 -80.0850 54° Northeast 510 587 23,000 -960 Descending Washington Center
04:32PM 34.8722 -79.9664 44° Northeast 498 573 21,600 -1,980 Descending Washington Center
04:33PM 34.9700 -79.8550 43° Northeast 488 562 19,100 -2,640 Descending Washington Center
04:34PM 35.0675 -79.7511 41° Northeast 463 533 16,400 -2,400 Descending Washington Center
04:35PM 35.1672 -79.6419 42° Northeast 442 509 14,400 -1,800 Descending Washington Center
04:37PM 35.2894 -79.5439 33° Northeast 405 466 12,300 -1,500 Descending Washington Center
04:38PM 35.3900 -79.4725 30° Northeast 384 442 11,000 -720 Descending Washington Center
04:39PM 35.4733 -79.4128 30° Northeast 333 383 10,900 -720 Descending Washington Center
04:40PM 35.5253 -79.3564 41° Northeast 322 371 9,700 -1,080 Descending Washington Center
04:41PM 35.5781 -79.2694 53° Northeast 319 367 9,000 -600 Descending Washington Center
04:41PM 35.6056 -79.1814 69° East 303 349 8,600 -900 Descending Washington Center
04:42PM 35.6375 -79.0933 66° East 282 325 7,400 -1,200 Descending Washington Center
04:44PM 35.7000 -79.0194 44° Northeast 271 312 6,100 -1,020 Descending Washington Center
04:45PM 35.7492 -78.9781 34° Northeast 259 298 5,200 -960 Descending Washington Center
04:46PM 35.7894 -79.0361 311° West 215 247 4,100 -600 Descending Washington Center
04:47PM 35.7442 -79.0803 218° Southwest 215 247 4,000 -60 Descending Washington Center
04:48PM 35.7228 -79.0331 119° Southeast 171 197 4,000  Level Washington Center
04:49PM 35.7303 -78.9900 78° East 158 182 4,000 -60 Level Washington Center
04:50PM 35.7583 -78.9503 49° Northeast 174 200 3,900 -540 Descending Washington Center
04:51PM 35.7867 -78.9131 47° Northeast 145 167 3,000 -900 Descending Washington Center
04:52PM 35.8147 -78.8808 43° Northeast 132 152 2,200 -840 Descending Washington Center
04:53PM 35.8383 -78.8486 48° Northeast 119 137 1,400 -780 Descending Washington Center
04:54PM 35.8622 -78.8214 43° Northeast 123 142 700 -720 Descending Washington Center
04:56PM 35.8667 -78.7833 51° Northeast  Level FlightAware Approximate
05:03PM 35.8776 -78.7875 51° Northeast  Level Estimated